KHIE/HIE METAR and TAF weather

Enter ICAO airport designator
Station Type Date Time Source
KHIE METAR 2020/02/24 07:52 UTC NOAA

KHIE 240752Z AUTO 00000KT 10SM CLR M10/M12 A2996 RMK AO2 SLP161 T11001117


Station Type Date Time Source
KHIE Decoded METAR 2020/02/24 07:52 UTC NOAA

MT WASHINGTON REGIONAL AIRPORT , NH, United States (KHIE) 44-22N 71-33W 318M
Feb 24, 2020 - 02:52 AM EST / 2020.02.24 0752 UTC
Wind: Calm:0
Visibility: 10 mile(s):0
Sky conditions: clear
Temperature: 14.0 F (-10.0 C)
Dew Point: 10.9 F (-11.7 C)
Relative Humidity: 87%
Pressure (altimeter): 29.96 in. Hg (1014 hPa)
ob: KHIE 240752Z AUTO 00000KT 10SM CLR M10/M12 A2996 RMK AO2 SLP161 T11001117
cycle: 8

Station Type Date Time Source
KHIE TAF 2020/02/24 06:22 UTC NOAA

TAF KHIE 240520Z 2406/2506 VRB03KT P6SM FEW250

Example: see airport list